Aérodrome :
LOGIN :

S'inscrire | Disclaimer

   EN    FR    IT 

 










Légende :    VFR   VFR Marginal   IFR   IFR Intensif   IFR Très Intensif
Visi : 
Plafond : 
>= 8 km
>= 3000ft
5 à 8 km
1000 à 3000 ft
1500m à 5 km
500 à 1000 ft
800 à 1500m
200 à 500 ft
< 800m
< 200 ft
Symboles :   Orages  Brouillard  Fortes neiges  Fortes précipitations  Vent > 20 kt
SIGMETs :   Divers  Orages  Givrage  Turbulence  Onde Orograph.  Cendres Volcan.







- Altitude de l'aérodrome : 297 ft
- Code IATA : UIP
- Voir les cartes d'approche


LFRQ - Quimper Pluguffan

DERNIER METAR :
  • 230130Z AUTO 34008KT 9999 OVC028 11/09 Q1019

METARs EXPIRÉS :
  • 230100Z AUTO 33010KT 9999 SCT008 SCT014 OVC026 11/10 Q1019
  • 230030Z AUTO 30004KT 9999 FEW012 OVC029 11/10 Q1018
  • 230000Z AUTO 33006KT 9999 SCT009 OVC030 11/10 Q1018
  • 222330Z AUTO 31005KT 9999 FEW009 OVC030 11/10 Q1018
  • 222300Z AUTO 30004KT 9999 FEW009 OVC029 11/10 Q1018 TEMPO 3000 BR BKN003

TAF TAF LFRQ
Valide du 22 à 18h jusqu'au 23 à 18h UTC


221700Z 2218/2318 30008KT 9999 SCT020
BECMG 2219/2221 BKN013
PROB30
TEMPO 2221/2306 3000 BR BKN003
BECMG 2308/2310 SCT020
Pas de NOTAMs connus pour ce terrain.



MET'MAP, la Météo Aéronautique d'un coup d'oeil ! - Copyright ORBIFLY Décembre 2007 - Disclaimer

ORBIFLY MET'MAP TEAM :

Programmation & Développement : Alexandra Zaïnal
Conception & Développement : Baudouin d'Aumeries
Co-Programmation & Développement : Marc-Olivier Méhu
Soutien technique & logistique : Manuel Goepfert

Contact : metmap@orbifly.com




SOURCES & CREDITS :

   NOAA